Armstrong Creek, Wisconsin
Current Conditions -  °F | °C
As of 5:54 PM on Friday 21 Nov 2014 (Local Time) from KIMT Reporting Station
Clear Clear  
Wind Chill: -13°   Ceiling: Unl
Heat Index: -7°   Visibility: 10mi
Dew Point: -16°   Wind: 12mph
Humidity: 50%   Direction: 170°S
Pressure: 30.04"   Gusts: NA
Location:  45.66°N, 88.45°W
Report Text: KIMT 212354Z AUTO 17010KT 10SM CLR M07/M16 A3004 RMK AO2 SLP201 T10671156 11044 21072 58019
Loading
Personal Weather Stations






























Interactive Weather Map New forecast layout! Learn more

10-Day Weather Forecast

Advertisements
Track Severe Weather on mobile